Time;durP1;ratioP1;P1;durP2;ratioP2;P2;SDS_P1;SDS_P2;PMS_P1;PMS_P2;Temp;Humidity;BMP_temperature;BMP_pressure;BME280_temperature;BME280_humidity;BME280_pressure;Samples;Min_cycle;Max_cycle;Signal;HPM_P1;HPM_P2
2022/08/09 00:01:48;;;;;;;8.50;4.35;;;14.40;99.90;;;;;;5052614;28;20132;-69
2022/08/09 00:04:15;;;;;;;6.00;4.28;;;14.40;99.90;;;;;;5035549;28;20053;-69
2022/08/09 00:06:42;;;;;;;6.53;4.32;;;14.40;99.90;;;;;;5052477;28;20053;-69
2022/08/09 00:09:11;;;;;;;6.07;4.15;;;14.40;99.90;;;;;;5035158;28;20056;-67
2022/08/09 00:11:38;;;;;;;5.18;3.92;;;14.40;99.90;;;;;;5052984;28;20060;-69
2022/08/09 00:14:05;;;;;;;8.80;4.18;;;14.40;99.90;;;;;;5051595;28;20045;-68
2022/08/09 00:16:33;;;;;;;6.25;4.43;;;14.40;99.90;;;;;;5034485;28;20049;-68
2022/08/09 00:19:00;;;;;;;5.88;4.20;;;14.30;99.90;;;;;;5052466;28;20052;-69
2022/08/09 00:21:27;;;;;;;7.47;3.78;;;14.30;99.90;;;;;;5052299;28;20053;-68
2022/08/09 00:23:55;;;;;;;6.45;4.30;;;14.20;99.90;;;;;;5052155;28;20045;-68
2022/08/09 00:26:23;;;;;;;7.57;3.97;;;14.20;99.90;;;;;;5035118;28;20049;-68
2022/08/09 00:28:50;;;;;;;5.25;3.53;;;14.10;99.90;;;;;;5033958;28;20504;-69
2022/08/09 00:31:17;;;;;;;8.43;4.40;;;14.10;99.90;;;;;;5053301;28;20075;-70
2022/08/09 00:33:44;;;;;;;6.93;4.35;;;14.10;99.90;;;;;;5052317;28;20504;-69
2022/08/09 00:36:11;;;;;;;8.55;4.28;;;14.10;99.90;;;;;;5052075;28;20049;-69
2022/08/09 00:38:39;;;;;;;6.63;3.92;;;14.10;99.90;;;;;;5034724;28;20155;-69
2022/08/09 00:41:06;;;;;;;9.82;4.15;;;14.10;99.90;;;;;;5052969;28;20072;-70
2022/08/09 00:43:36;;;;;;;7.05;4.72;;;14.00;99.90;;;;;;5034179;28;20103;-69
2022/08/09 00:46:04;;;;;;;6.13;3.83;;;14.00;99.90;;;;;;5053020;28;20049;-69
2022/08/09 00:48:31;;;;;;;5.22;3.45;;;14.00;99.90;;;;;;5034302;28;20484;-68
2022/08/09 00:51:02;;;;;;;5.00;3.75;;;13.90;99.90;;;;;;5051844;28;20053;-68
2022/08/09 00:53:28;;;;;;;;;;;13.90;99.90;;;;;;5015880;28;20126;-67
2022/08/09 00:55:55;;;;;;;6.63;4.80;;;13.80;99.90;;;;;;5014972;28;20266;-69
2022/08/09 00:58:22;;;;;;;6.10;4.57;;;13.70;99.90;;;;;;5018826;28;20404;-68
2022/08/09 01:00:53;;;;;;;9.07;4.72;;;13.70;99.90;;;;;;5052868;28;20114;-68
2022/08/09 01:03:27;;;;;;;8.57;5.00;;;13.80;99.90;;;;;;5052092;28;20532;-68
2022/08/09 01:05:59;;;;;;;8.18;4.85;;;13.70;99.90;;;;;;5034850;28;20405;-68
2022/08/09 01:08:34;;;;;;;7.93;4.80;;;13.70;99.90;;;;;;5052379;28;20448;-69
2022/08/09 01:11:22;;;;;;;4.93;3.85;;;13.70;99.90;;;;;;5014282;28;20104;-69
2022/08/09 01:13:56;;;;;;;8.88;4.85;;;13.60;99.90;;;;;;5014916;28;20565;-70
2022/08/09 01:16:30;;;;;;;6.13;4.05;;;13.60;99.90;;;;;;5015303;28;20049;-69
2022/08/09 01:19:02;;;;;;;5.53;4.30;;;13.60;99.90;;;;;;5031511;28;20058;-69
2022/08/09 01:21:47;;;;;;;8.18;4.82;;;13.60;99.90;;;;;;5015309;28;20060;-69
2022/08/09 01:24:19;;;;;;;7.70;4.50;;;13.60;99.90;;;;;;5022974;28;20049;-69
2022/08/09 01:26:58;;;;;;;7.22;4.13;;;13.60;99.90;;;;;;5034323;28;20481;-69
2022/08/09 01:29:31;;;;;;;6.90;4.28;;;13.60;99.90;;;;;;5034323;28;20079;-69
2022/08/09 01:32:01;;;;;;;6.47;4.07;;;13.50;99.90;;;;;;5033832;28;20497;-69
2022/08/09 01:34:31;;;;;;;6.80;4.28;;;13.50;99.90;;;;;;5034862;28;20053;-69
2022/08/09 01:37:00;;;;;;;7.40;4.00;;;13.50;99.90;;;;;;5056124;28;20049;-69
2022/08/09 01:39:29;;;;;;;6.72;4.50;;;13.50;99.90;;;;;;5036877;28;20052;-69
2022/08/09 01:42:00;;;;;;;5.97;4.03;;;13.40;99.90;;;;;;5038116;28;20049;-69
2022/08/09 01:44:28;;;;;;;6.22;4.40;;;13.40;99.90;;;;;;5038465;28;20045;-69
2022/08/09 01:46:57;;;;;;;7.43;4.55;;;13.40;99.90;;;;;;5037384;28;20110;-69
2022/08/09 01:49:26;;;;;;;8.82;4.20;;;13.40;99.90;;;;;;5054931;28;20132;-69
2022/08/09 01:51:56;;;;;;;9.32;4.40;;;13.40;99.90;;;;;;5056108;28;20052;-69
2022/08/09 01:54:25;;;;;;;5.15;3.85;;;13.40;99.90;;;;;;5054690;28;20417;-69
2022/08/09 01:56:54;;;;;;;6.53;4.23;;;13.40;99.90;;;;;;5055845;28;20083;-68
2022/08/09 01:59:23;;;;;;;6.97;4.25;;;13.40;99.90;;;;;;5054712;28;20060;-69
2022/08/09 02:01:53;;;;;;;6.00;4.00;;;13.40;99.90;;;;;;5055400;28;20053;-69
2022/08/09 02:04:21;;;;;;;8.00;3.92;;;13.30;99.90;;;;;;5055790;28;20127;-69
2022/08/09 02:07:10;;;;;;;5.90;4.20;;;13.30;99.90;;;;;;5037055;28;20056;-69
2022/08/09 02:09:42;;;;;;;5.95;4.25;;;13.30;99.90;;;;;;5037138;28;20056;-68
2022/08/09 02:12:12;;;;;;;6.95;4.38;;;13.20;99.90;;;;;;5037862;28;20379;-68
2022/08/09 02:14:43;;;;;;;7.55;5.25;;;13.30;99.90;;;;;;5035875;28;20041;-69
2022/08/09 02:17:11;;;;;;;;;;;13.20;99.90;;;;;;5018515;28;20111;-68
2022/08/09 02:19:38;;;;;;;9.32;5.07;;;13.10;99.90;;;;;;5017472;28;19932;-69
2022/08/09 02:22:12;;;;;;;8.88;4.20;;;13.10;99.90;;;;;;5034661;28;20049;-69
2022/08/09 02:24:43;;;;;;;6.80;3.80;;;13.10;99.90;;;;;;5035333;28;20049;-69
2022/08/09 02:27:12;;;;;;;5.75;3.80;;;13.10;99.90;;;;;;5035243;28;20490;-68
2022/08/09 02:29:45;;;;;;;6.80;3.80;;;13.10;99.90;;;;;;5021853;28;20149;-68
2022/08/09 02:32:13;;;;;;;6.70;4.15;;;13.10;99.90;;;;;;5054857;28;20076;-69
2022/08/09 02:34:44;;;;;;;7.88;5.00;;;13.10;99.90;;;;;;5054374;28;20052;-69
2022/08/09 02:37:14;;;;;;;6.07;4.20;;;13.00;99.90;;;;;;5037225;28;20111;-68
2022/08/09 02:39:43;;;;;;;;;;;13.00;99.90;;;;;;5055188;28;20140;-68
2022/08/09 02:42:15;;;;;;;7.80;4.13;;;13.00;99.90;;;;;;5054066;28;19994;-69
2022/08/09 02:44:47;;;;;;;6.88;4.50;;;13.00;99.90;;;;;;5036835;28;20052;-68
2022/08/09 02:47:16;;;;;;;5.18;3.58;;;12.90;99.90;;;;;;5053882;28;20099;-69
2022/08/09 02:49:49;;;;;;;8.02;3.50;;;12.90;99.90;;;;;;5036125;28;20107;-68
2022/08/09 02:52:18;;;;;;;5.35;3.92;;;12.90;99.90;;;;;;5037025;28;20048;-68
2022/08/09 02:54:47;;;;;;;6.53;3.78;;;12.90;99.90;;;;;;5037942;28;20505;-68
2022/08/09 02:57:18;;;;;;;4.40;3.20;;;12.90;99.90;;;;;;5037132;28;20106;-68
2022/08/09 02:59:47;;;;;;;5.30;3.95;;;12.90;99.90;;;;;;5037717;28;20052;-69
2022/08/09 03:02:15;;;;;;;4.67;3.40;;;12.80;99.90;;;;;;5037609;28;20057;-68
2022/08/09 03:04:43;;;;;;;4.43;3.20;;;12.80;99.90;;;;;;5053490;28;20052;-69
2022/08/09 03:07:12;;;;;;;4.15;2.67;;;12.80;99.90;;;;;;5054166;28;20052;-69
2022/08/09 03:09:42;;;;;;;4.93;2.50;;;12.80;99.90;;;;;;5053548;28;20056;-69
2022/08/09 03:12:11;;;;;;;3.45;2.40;;;12.80;99.90;;;;;;5053902;28;20060;-69
2022/08/09 03:14:40;;;;;;;4.63;2.50;;;12.80;99.90;;;;;;5053789;28;20519;-69
2022/08/09 03:17:08;;;;;;;4.97;2.88;;;12.80;99.90;;;;;;5053666;28;20052;-69
2022/08/09 03:19:36;;;;;;;5.10;2.55;;;12.80;99.90;;;;;;5053881;28;20110;-69
2022/08/09 03:22:04;;;;;;;5.30;2.92;;;12.80;99.90;;;;;;5054367;28;20095;-69
2022/08/09 03:24:31;;;;;;;3.35;2.13;;;12.80;99.90;;;;;;5035573;28;20102;-68
2022/08/09 03:26:59;;;;;;;3.03;1.92;;;12.70;99.90;;;;;;5054176;28;20102;-69
2022/08/09 03:29:27;;;;;;;2.80;1.85;;;12.70;99.90;;;;;;5053301;28;20084;-69
2022/08/09 03:31:55;;;;;;;3.40;2.10;;;12.70;99.90;;;;;;5053369;28;20056;-69
2022/08/09 03:34:23;;;;;;;3.55;2.20;;;12.70;99.90;;;;;;5053469;28;20044;-68
2022/08/09 03:36:50;;;;;;;3.13;1.55;;;12.60;99.90;;;;;;5035747;28;20091;-68
2022/08/09 03:39:17;;;;;;;3.15;1.90;;;12.50;99.90;;;;;;5052658;28;20493;-69
2022/08/09 03:41:44;;;;;;;3.88;2.50;;;12.50;99.90;;;;;;5053670;28;20065;-69
2022/08/09 03:44:10;;;;;;;3.63;2.40;;;12.50;99.90;;;;;;5035880;28;20056;-69
2022/08/09 03:46:37;;;;;;;5.38;2.55;;;12.50;99.90;;;;;;5052825;28;20048;-69
2022/08/09 03:49:05;;;;;;;2.80;1.85;;;12.70;99.90;;;;;;5035688;28;20056;-69
2022/08/09 03:51:34;;;;;;;3.58;1.80;;;12.90;99.90;;;;;;5052138;28;20194;-68
2022/08/09 03:54:01;;;;;;;2.83;1.80;;;13.20;99.90;;;;;;5029829;28;20120;-68
2022/08/09 03:56:28;;;;;;;4.47;1.60;;;13.40;99.90;;;;;;5031648;28;20053;-69
2022/08/09 03:58:55;;;;;;;4.30;2.10;;;13.60;99.90;;;;;;5014740;28;20049;-67
2022/08/09 04:01:23;;;;;;;12.55;2.95;;;13.80;99.90;;;;;;5016374;28;20057;-69
2022/08/09 04:03:52;;;;;;;3.22;2.22;;;13.90;99.90;;;;;;5013984;28;20084;-70
2022/08/09 04:06:20;;;;;;;7.45;2.03;;;14.00;99.90;;;;;;5021349;28;20408;-69
2022/08/09 04:08:48;;;;;;;3.95;2.30;;;14.10;99.90;;;;;;5013062;28;20390;-69
2022/08/09 04:11:15;;;;;;;5.03;2.60;;;14.20;99.90;;;;;;5044346;28;20464;-68
2022/08/09 04:13:42;;;;;;;5.05;2.42;;;14.20;99.90;;;;;;5032197;28;20061;-69
2022/08/09 04:16:08;;;;;;;4.93;2.10;;;14.20;99.90;;;;;;5014568;28;20115;-68
2022/08/09 04:18:35;;;;;;;4.15;2.47;;;14.30;99.90;;;;;;5031658;28;20107;-69
2022/08/09 04:21:02;;;;;;;4.30;2.10;;;14.40;99.90;;;;;;5021566;28;20102;-69
2022/08/09 04:23:29;;;;;;;3.33;1.95;;;14.40;99.90;;;;;;5030302;28;20059;-69
2022/08/09 04:25:57;;;;;;;4.25;2.42;;;14.40;99.90;;;;;;5033312;28;20038;-69
2022/08/09 04:28:25;;;;;;;3.25;1.70;;;14.40;99.90;;;;;;5018388;28;20049;-68
2022/08/09 04:30:52;;;;;;;5.40;2.03;;;14.40;99.90;;;;;;5013318;28;20049;-69
2022/08/09 04:33:19;;;;;;;6.43;2.50;;;14.40;99.90;;;;;;5032749;28;20100;-69
2022/08/09 04:35:47;;;;;;;3.60;2.28;;;14.50;99.90;;;;;;5030186;28;20488;-69
2022/08/09 04:38:14;;;;;;;3.70;1.85;;;14.50;99.90;;;;;;5013567;28;20099;-69
2022/08/09 04:40:49;;;;;;;5.80;1.90;;;14.60;99.90;;;;;;5016452;28;20506;-69
2022/08/09 04:43:18;;;;;;;2.95;1.80;;;14.80;99.90;;;;;;5030789;28;20497;-70
2022/08/09 04:45:46;;;;;;;4.25;1.60;;;14.80;99.90;;;;;;5014099;28;20107;-69
2022/08/09 04:48:13;;;;;;;4.68;1.58;;;14.80;99.90;;;;;;5030514;28;20053;-70
2022/08/09 04:50:41;;;;;;;3.13;1.92;;;14.80;99.90;;;;;;5031375;28;20425;-70
2022/08/09 04:53:09;;;;;;;3.47;1.42;;;14.80;99.90;;;;;;5032413;28;20053;-70
2022/08/09 04:55:37;;;;;;;2.83;1.50;;;14.90;99.90;;;;;;5032231;28;20042;-70
2022/08/09 04:58:04;;;;;;;3.10;1.90;;;14.90;99.90;;;;;;5046962;28;20040;-69
2022/08/09 05:00:33;;;;;;;2.75;1.60;;;14.90;99.90;;;;;;5031485;28;20053;-69
2022/08/09 05:03:01;;;;;;;6.32;1.95;;;15.00;99.90;;;;;;5013557;28;20076;-71
2022/08/09 05:05:28;;;;;;;2.97;1.85;;;15.10;99.90;;;;;;5025566;28;20068;-69
2022/08/09 05:07:55;;;;;;;4.13;2.17;;;15.10;99.90;;;;;;5025298;28;20080;-70
2022/08/09 05:10:22;;;;;;;4.18;2.05;;;15.10;99.90;;;;;;5049625;28;20465;-70
2022/08/09 05:12:49;;;;;;;4.13;2.05;;;15.00;99.90;;;;;;5040071;28;20050;-69
2022/08/09 05:15:16;;;;;;;8.65;2.38;;;15.00;99.90;;;;;;5048266;28;20091;-68
2022/08/09 05:17:44;;;;;;;2.97;1.77;;;15.00;99.90;;;;;;5039448;28;20058;-68
2022/08/09 05:20:12;;;;;;;2.95;2.15;;;15.00;99.90;;;;;;5034029;28;20061;-68
2022/08/09 05:22:39;;;;;;;3.28;1.60;;;14.90;99.90;;;;;;5017775;28;20049;-71
2022/08/09 05:25:06;;;;;;;4.35;2.08;;;15.00;99.90;;;;;;5017217;28;20057;-68
2022/08/09 05:27:33;;;;;;;4.30;1.75;;;15.10;99.90;;;;;;5020223;28;20115;-70
2022/08/09 05:30:00;;;;;;;3.08;1.90;;;15.30;99.90;;;;;;5018007;28;20050;-70
2022/08/09 05:32:27;;;;;;;5.30;1.80;;;15.50;99.90;;;;;;5016348;28;20060;-70
2022/08/09 05:34:55;;;;;;;3.88;1.75;;;15.60;99.90;;;;;;5017270;28;20053;-69
2022/08/09 05:37:22;;;;;;;3.83;1.60;;;15.70;99.90;;;;;;5034078;28;20059;-70
2022/08/09 05:39:49;;;;;;;3.58;1.67;;;15.90;99.90;;;;;;5016572;28;20527;-71
2022/08/09 05:42:16;;;;;;;4.95;2.00;;;15.90;99.90;;;;;;5042458;28;20060;-70
2022/08/09 05:44:43;;;;;;;2.75;1.67;;;15.90;99.90;;;;;;5033725;28;20061;-70
2022/08/09 05:47:09;;;;;;;4.13;1.80;;;16.10;99.90;;;;;;5034486;28;20054;-70
2022/08/09 05:49:36;;;;;;;3.15;2.05;;;16.20;99.90;;;;;;5016308;28;20053;-70
2022/08/09 05:52:05;;;;;;;3.50;2.00;;;16.30;99.90;;;;;;5015914;28;20054;-68
2022/08/09 05:54:32;;;;;;;4.65;1.95;;;16.40;99.90;;;;;;5035095;28;20053;-69
2022/08/09 05:56:59;;;;;;;2.75;1.92;;;16.60;99.90;;;;;;5033921;28;20057;-69
2022/08/09 05:59:26;;;;;;;5.50;3.50;;;16.80;99.90;;;;;;5016156;28;20103;-68
2022/08/09 06:01:52;;;;;;;7.75;2.78;;;17.00;99.90;;;;;;5033791;28;20057;-68
2022/08/09 06:04:19;;;;;;;5.10;2.50;;;17.20;99.90;;;;;;5016185;28;20053;-68
2022/08/09 06:06:46;;;;;;;4.82;2.60;;;17.30;99.90;;;;;;5015223;28;20064;-68
2022/08/09 06:09:14;;;;;;;5.30;2.78;;;17.50;99.90;;;;;;5040596;28;20048;-69
2022/08/09 06:11:41;;;;;;;3.95;2.63;;;17.70;99.90;;;;;;5016620;28;20493;-69
2022/08/09 06:14:08;;;;;;;7.00;2.97;;;18.00;99.90;;;;;;5015876;28;20103;-69
2022/08/09 06:16:35;;;;;;;5.55;2.67;;;18.30;99.90;;;;;;5033742;28;20155;-69
2022/08/09 06:19:02;;;;;;;6.60;3.15;;;18.50;99.90;;;;;;5034198;28;20053;-68
2022/08/09 06:21:29;;;;;;;8.70;3.25;;;18.80;99.90;;;;;;5030898;28;20494;-69
2022/08/09 06:23:56;;;;;;;5.28;2.90;;;19.10;99.90;;;;;;5037622;28;20053;-68
2022/08/09 06:26:24;;;;;;;4.22;2.85;;;19.40;99.90;;;;;;5033765;28;20123;-70
2022/08/09 06:28:53;;;;;;;4.70;3.03;;;19.60;99.90;;;;;;5032359;28;20095;-69
2022/08/09 06:31:20;;;;;;;8.40;3.20;;;19.80;99.90;;;;;;5033470;28;20497;-69
2022/08/09 06:33:47;;;;;;;5.82;3.55;;;20.00;99.90;;;;;;5015540;28;20107;-69
2022/08/09 06:36:14;;;;;;;6.88;3.28;;;20.10;99.90;;;;;;5015773;28;20049;-69
2022/08/09 06:38:41;;;;;;;3.90;2.80;;;20.40;99.90;;;;;;5034651;28;20398;-69
2022/08/09 06:41:08;;;;;;;5.05;2.97;;;20.90;99.90;;;;;;5025643;28;20041;-70
2022/08/09 06:43:37;;;;;;;5.35;2.60;;;21.40;99.90;;;;;;5018180;28;20053;-69
2022/08/09 06:46:04;;;;;;;5.57;2.92;;;21.80;99.90;;;;;;5033243;28;20041;-69
2022/08/09 06:48:30;;;;;;;4.28;2.30;;;22.30;99.90;;;;;;5013997;28;20041;-70
2022/08/09 06:50:58;;;;;;;3.63;1.92;;;22.70;99.90;;;;;;5019442;28;20386;-70
2022/08/09 06:53:25;;;;;;;5.55;2.30;;;23.20;99.90;;;;;;5038512;28;20497;-71
2022/08/09 06:55:52;;;;;;;4.90;1.80;;;23.70;99.90;;;;;;5015497;28;20445;-68
2022/08/09 06:58:19;;;;;;;4.60;2.05;;;24.20;99.90;;;;;;5035616;28;20390;-70
2022/08/09 07:00:47;;;;;;;2.80;1.60;;;24.60;99.90;;;;;;5033864;28;20157;-70
2022/08/09 07:03:14;;;;;;;3.72;1.80;;;25.00;99.90;;;;;;5034736;28;20517;-72
2022/08/09 07:05:41;;;;;;;5.55;1.50;;;25.30;99.90;;;;;;5033370;28;20509;-71
2022/08/09 07:08:08;;;;;;;5.22;2.05;;;25.60;99.30;;;;;;5033314;28;20057;-71
2022/08/09 07:29:45;;;;;;;4.35;1.70;;;27.20;94.80;;;;;;5037277;28;20405;-71
2022/08/09 07:32:13;;;;;;;4.50;1.55;;;27.70;93.40;;;;;;5034842;28;20107;-70
2022/08/09 07:34:40;;;;;;;4.50;1.48;;;28.00;94.30;;;;;;5017647;28;20065;-71
2022/08/09 07:37:07;;;;;;;5.50;1.23;;;28.30;94.10;;;;;;5013545;28;20046;-70
2022/08/09 07:39:36;;;;;;;;;;;28.40;93.50;;;;;;5037023;28;20037;-70
2022/08/09 07:42:04;;;;;;;2.40;1.02;;;28.50;91.50;;;;;;5015066;28;19925;-71
2022/08/09 07:44:30;;;;;;;3.13;1.25;;;28.90;93.00;;;;;;5014819;28;20049;-70
2022/08/09 07:46:57;;;;;;;2.13;1.08;;;29.00;92.40;;;;;;5017028;28;20061;-70
2022/08/09 07:49:25;;;;;;;3.13;1.45;;;29.20;91.90;;;;;;5031661;28;20038;-71
2022/08/09 07:51:52;;;;;;;4.28;1.20;;;29.10;91.30;;;;;;5031731;28;20111;-71
2022/08/09 07:54:19;;;;;;;3.97;1.10;;;29.10;91.20;;;;;;5031807;28;20555;-71
2022/08/09 07:56:46;;;;;;;1.70;1.00;;;29.70;91.10;;;;;;5041839;28;20107;-71
2022/08/09 07:59:13;;;;;;;2.28;1.00;;;29.40;90.80;;;;;;5036712;28;20041;-72
2022/08/09 08:01:40;;;;;;;2.97;1.10;;;28.80;90.60;;;;;;5014074;28;20061;-70
2022/08/09 08:04:07;;;;;;;2.90;0.93;;;28.70;90.60;;;;;;5022987;28;20057;-71
2022/08/09 08:06:35;;;;;;;3.55;0.85;;;29.00;90.50;;;;;;5031035;28;20081;-72
2022/08/09 08:09:02;;;;;;;2.38;1.13;;;29.40;89.80;;;;;;5014189;28;20045;-72
2022/08/09 08:11:29;;;;;;;7.22;1.67;;;29.80;88.90;;;;;;5033593;28;20128;-73
2022/08/09 08:13:56;;;;;;;3.58;0.88;;;29.70;88.40;;;;;;5034720;28;20575;-72
2022/08/09 08:16:23;;;;;;;2.67;1.15;;;29.30;88.70;;;;;;5032258;28;20045;-72
2022/08/09 08:18:49;;;;;;;1.70;0.80;;;29.30;88.60;;;;;;5031436;28;20049;-72
2022/08/09 08:21:16;;;;;;;2.47;0.93;;;29.40;87.20;;;;;;5013063;28;20061;-73
2022/08/09 08:23:44;;;;;;;1.17;0.60;;;29.90;86.70;;;;;;5018436;28;20053;-71
2022/08/09 08:26:11;;;;;;;2.33;0.88;;;29.90;85.60;;;;;;5039052;28;20045;-72
2022/08/09 08:28:38;;;;;;;1.70;0.90;;;29.70;85.90;;;;;;5019881;28;20068;-71
2022/08/09 08:31:05;;;;;;;2.00;0.80;;;28.80;86.20;;;;;;5018577;28;20056;-72
2022/08/09 08:33:32;;;;;;;2.85;0.90;;;27.90;87.80;;;;;;5012970;28;20474;-72
2022/08/09 08:35:59;;;;;;;9.32;1.45;;;27.20;88.80;;;;;;5015113;28;20122;-71
2022/08/09 08:38:26;;;;;;;8.88;1.20;;;26.40;90.00;;;;;;5030672;28;20053;-71
2022/08/09 08:40:55;;;;;;;3.58;1.10;;;26.00;90.60;;;;;;5031380;28;20091;-71
2022/08/09 08:43:23;;;;;;;3.03;1.00;;;25.50;91.20;;;;;;5013290;28;20072;-71
2022/08/09 08:45:53;;;;;;;1.98;0.95;;;25.20;91.70;;;;;;5030573;28;20037;-71
2022/08/09 08:48:21;;;;;;;;;;;25.00;92.10;;;;;;5032437;28;20053;-71
2022/08/09 08:50:48;;;;;;;2.55;0.93;;;24.70;92.90;;;;;;5016154;28;19976;-71
2022/08/09 08:53:15;;;;;;;2.42;0.82;;;25.40;92.60;;;;;;5032360;28;20100;-72
2022/08/09 08:55:44;;;;;;;3.17;1.10;;;26.20;91.60;;;;;;5044026;28;20053;-72
2022/08/09 08:58:12;;;;;;;4.10;0.80;;;27.00;90.90;;;;;;5035692;28;20401;-72
2022/08/09 09:00:41;;;;;;;1.65;0.77;;;27.40;90.10;;;;;;5013902;28;20072;-72
2022/08/09 09:03:10;;;;;;;2.58;1.00;;;28.50;89.10;;;;;;5034597;28;20061;-71
2022/08/09 09:05:37;;;;;;;2.33;0.90;;;28.70;88.40;;;;;;5036604;28;20053;-72
2022/08/09 09:08:05;;;;;;;2.13;0.80;;;28.20;88.80;;;;;;5031779;28;20115;-73
2022/08/09 09:10:34;;;;;;;2.30;0.90;;;27.70;89.10;;;;;;5020416;28;20103;-72
2022/08/09 09:13:02;;;;;;;2.03;0.82;;;27.20;89.40;;;;;;5034362;28;20050;-72
2022/08/09 09:15:31;;;;;;;2.67;0.80;;;26.80;89.80;;;;;;5013595;28;20456;-71
2022/08/09 09:17:57;;;;;;;1.70;0.85;;;26.50;90.20;;;;;;5031066;28;20543;-71
2022/08/09 09:20:24;;;;;;;1.42;0.60;;;26.50;90.30;;;;;;5013011;28;20097;-71
2022/08/09 09:22:55;;;;;;;2.60;1.00;;;26.50;90.30;;;;;;5012463;28;20103;-72
2022/08/09 09:25:43;;;;;;;1.83;0.80;;;26.60;90.00;;;;;;5013464;28;20062;-71
2022/08/09 09:28:13;;;;;;;1.77;0.68;;;26.90;88.50;;;;;;5026663;28;20103;-71
2022/08/09 09:30:53;;;;;;;;;;;27.10;88.80;;;;;;5012401;28;20049;-71
2022/08/09 09:33:20;;;;;;;;;;;27.20;88.40;;;;;;5013408;28;20347;-72
2022/08/09 09:35:55;;;;;;;2.00;0.70;;;27.30;88.20;;;;;;5014998;28;19975;-73
2022/08/09 09:38:22;;;;;;;2.22;0.68;;;27.20;88.10;;;;;;5028454;28;20452;-71
2022/08/09 09:40:50;;;;;;;1.75;0.80;;;27.20;88.30;;;;;;5051986;28;20061;-72
2022/08/09 09:43:19;;;;;;;2.42;1.00;;;27.00;88.60;;;;;;5034224;28;20056;-71
2022/08/09 09:45:51;;;;;;;3.45;0.80;;;26.80;89.50;;;;;;5034058;28;20107;-71
2022/08/09 09:48:21;;;;;;;4.18;0.80;;;26.90;89.70;;;;;;5052093;28;20053;-71
2022/08/09 09:50:49;;;;;;;;;;;27.10;90.00;;;;;;5051611;28;20110;-71
2022/08/09 09:53:17;;;;;;;2.20;0.77;;;27.20;88.70;;;;;;5052067;28;19935;-71
2022/08/09 09:55:54;;;;;;;1.85;0.85;;;27.50;89.40;;;;;;5034514;28;20052;-71
2022/08/09 09:58:21;;;;;;;1.80;0.77;;;27.80;88.00;;;;;;5036937;28;20045;-71
2022/08/09 10:00:50;;;;;;;3.53;0.77;;;28.40;88.80;;;;;;5037907;28;20071;-72
2022/08/09 10:03:36;;;;;;;2.63;0.80;;;29.00;87.10;;;;;;5055154;28;20052;-72
2022/08/09 10:06:03;;;;;;;2.10;0.60;;;29.50;86.00;;;;;;5054787;28;20049;-72
2022/08/09 10:08:30;;;;;;;1.95;0.65;;;30.00;84.70;;;;;;5055590;28;20049;-72
2022/08/09 10:10:57;;;;;;;1.15;0.57;;;30.40;84.40;;;;;;5054996;28;20111;-72
2022/08/09 10:13:24;;;;;;;3.47;0.60;;;30.70;83.30;;;;;;5054489;28;20049;-72
2022/08/09 10:15:52;;;;;;;1.77;0.70;;;30.60;82.00;;;;;;5037288;28;20505;-71
2022/08/09 10:18:20;;;;;;;1.30;0.60;;;30.80;81.10;;;;;;5037587;28;20118;-73
2022/08/09 10:20:47;;;;;;;1.42;0.65;;;31.20;78.60;;;;;;5034975;28;20045;-72
2022/08/09 10:23:17;;;;;;;1.17;0.60;;;31.30;79.40;;;;;;5037544;28;20497;-73
2022/08/09 10:25:45;;;;;;;1.40;0.70;;;31.70;79.70;;;;;;5036829;28;20096;-72
2022/08/09 10:28:13;;;;;;;3.17;0.60;;;31.80;77.90;;;;;;5036836;28;20048;-72
2022/08/09 10:30:41;;;;;;;1.33;0.40;;;31.70;76.90;;;;;;5036531;28;20551;-73
2022/08/09 10:33:09;;;;;;;3.55;0.70;;;32.30;77.60;;;;;;5036133;28;20410;-73
2022/08/09 10:35:39;;;;;;;1.13;0.40;;;32.80;77.60;;;;;;5055082;28;20084;-72
2022/08/09 10:38:07;;;;;;;1.55;0.60;;;33.40;75.20;;;;;;5054702;28;20527;-72
2022/08/09 10:40:36;;;;;;;0.90;0.43;;;33.40;75.20;;;;;;5036084;28;20052;-73
2022/08/09 10:43:05;;;;;;;3.17;0.90;;;33.90;74.10;;;;;;5054866;28;20488;-72
2022/08/09 10:45:32;;;;;;;2.72;0.70;;;34.00;72.80;;;;;;5036701;28;20114;-72
2022/08/09 10:48:06;;;;;;;1.25;0.40;;;33.70;72.50;;;;;;5054204;28;20066;-73
2022/08/09 10:53:52;;;;;;;3.03;0.70;;;33.50;71.80;;;;;;5037232;28;20072;-73
2022/08/09 10:56:22;;;;;;;0.77;0.43;;;33.20;71.80;;;;;;5051191;28;20056;-73
2022/08/09 10:58:49;;;;;;;1.88;0.40;;;33.00;73.20;;;;;;5054602;28;20057;-73
2022/08/09 11:01:41;;;;;;;3.50;0.40;;;32.60;72.70;;;;;;5053375;28;20165;-73
2022/08/09 11:04:20;;;;;;;0.68;0.38;;;32.60;72.20;;;;;;5036842;28;20056;-73
2022/08/09 11:07:09;;;;;;;1.75;0.57;;;32.30;72.60;;;;;;5036669;28;20059;-72
2022/08/09 11:09:50;;;;;;;0.85;0.40;;;32.70;72.20;;;;;;5052897;28;20053;-72
2022/08/09 11:12:18;;;;;;;0.68;0.25;;;33.00;71.90;;;;;;5053672;28;20067;-72
2022/08/09 11:14:47;;;;;;;2.83;0.40;;;33.40;72.70;;;;;;5035469;28;20049;-73
2022/08/09 11:17:51;;;;;;;0.93;0.40;;;33.50;71.90;;;;;;5035630;28;20080;-73
2022/08/09 11:20:37;;;;;;;0.93;0.40;;;33.70;70.10;;;;;;5041314;28;20045;-73
2022/08/09 11:23:05;;;;;;;0.73;0.52;;;34.20;70.90;;;;;;5048738;28;20478;-73
2022/08/09 11:25:47;;;;;;;1.15;0.50;;;34.30;70.10;;;;;;5036345;28;20057;-72
2022/08/09 11:28:44;;;;;;;2.38;0.52;;;34.00;68.40;;;;;;5035084;28;20052;-72
2022/08/09 11:31:43;;;;;;;0.82;0.40;;;33.60;69.40;;;;;;5021805;28;20497;-72
2022/08/09 11:34:17;;;;;;;0.95;0.40;;;33.10;70.10;;;;;;5053998;28;20060;-72
2022/08/09 11:36:44;;;;;;;0.95;0.57;;;33.30;70.90;;;;;;5051033;28;20049;-73
2022/08/09 11:39:13;;;;;;;1.67;0.60;;;33.50;70.60;;;;;;5053507;28;20057;-73
2022/08/09 11:41:40;;;;;;;2.33;0.60;;;33.90;70.40;;;;;;5053740;28;20130;-73
2022/08/09 11:44:08;;;;;;;1.35;0.50;;;34.30;69.80;;;;;;5052996;28;20044;-73
2022/08/09 11:46:52;;;;;;;0.93;0.50;;;34.50;69.90;;;;;;5053923;28;20045;-72
2022/08/09 11:49:20;;;;;;;1.60;0.57;;;34.80;68.30;;;;;;5035751;28;20139;-73
2022/08/09 11:52:03;;;;;;;0.60;0.40;;;35.00;68.30;;;;;;5052169;28;20123;-73
2022/08/09 11:54:31;;;;;;;0.52;0.30;;;35.20;67.60;;;;;;5036002;28;20122;-73
2022/08/09 11:57:31;;;;;;;0.53;0.30;;;35.10;67.50;;;;;;5052758;28;20057;-72
2022/08/09 12:00:05;;;;;;;1.52;0.50;;;35.50;67.60;;;;;;5050819;28;20307;-73
2022/08/09 12:02:32;;;;;;;1.73;0.50;;;35.60;67.00;;;;;;5053405;28;20493;-73
2022/08/09 12:04:59;;;;;;;1.13;0.40;;;35.60;67.20;;;;;;5052122;28;20045;-73
2022/08/09 12:07:29;;;;;;;3.90;0.55;;;35.20;67.00;;;;;;5035113;28;20590;-73
2022/08/09 12:10:01;;;;;;;2.72;0.60;;;34.60;66.60;;;;;;5035606;28;20045;-72
2022/08/09 12:12:28;;;;;;;5.03;0.80;;;34.50;67.40;;;;;;5047346;28;20045;-72
2022/08/09 12:14:54;;;;;;;1.02;0.43;;;34.90;68.00;;;;;;5014140;28;20448;-73
2022/08/09 12:17:21;;;;;;;1.20;0.55;;;34.10;67.30;;;;;;5014182;28;20053;-73
2022/08/09 12:19:48;;;;;;;2.03;0.60;;;33.10;68.30;;;;;;5011976;28;20060;-73
2022/08/09 12:22:19;;;;;;;1.50;0.68;;;33.10;69.30;;;;;;5017738;28;20053;-74
2022/08/09 12:24:45;;;;;;;3.28;0.75;;;33.10;69.10;;;;;;5014810;28;20111;-73
2022/08/09 12:27:20;;;;;;;1.10;0.50;;;33.60;69.40;;;;;;5012865;28;20053;-72
2022/08/09 12:29:55;;;;;;;1.67;0.60;;;34.00;67.70;;;;;;5031304;28;20053;-72
2022/08/09 12:32:26;;;;;;;1.20;0.60;;;33.90;67.80;;;;;;5013143;28;20050;-73
2022/08/09 12:34:59;;;;;;;1.73;0.60;;;33.50;67.80;;;;;;5034039;28;20521;-73
2022/08/09 12:37:32;;;;;;;2.33;0.80;;;33.20;67.80;;;;;;5014998;28;20061;-72
2022/08/09 12:40:00;;;;;;;2.08;0.60;;;33.60;68.30;;;;;;5035645;28;20131;-73
2022/08/09 12:42:29;;;;;;;1.17;0.55;;;33.90;68.60;;;;;;5034583;28;20066;-73
2022/08/09 12:44:56;;;;;;;2.67;0.60;;;33.20;67.70;;;;;;5035828;28;20107;-73
2022/08/09 12:47:23;;;;;;;2.65;0.50;;;33.00;68.30;;;;;;5013431;28;20107;-71
2022/08/09 12:52:38;;;;;;;1.42;0.73;;;33.20;68.00;;;;;;5030663;28;20394;-73
2022/08/09 12:55:06;;;;;;;3.38;0.47;;;33.80;67.40;;;;;;5032713;28;20053;-72
2022/08/09 12:57:43;;;;;;;5.63;0.63;;;34.20;67.70;;;;;;5013315;28;20045;-72
2022/08/09 13:00:16;;;;;;;3.40;0.70;;;34.40;66.40;;;;;;5032020;28;20490;-72
2022/08/09 13:02:52;;;;;;;1.40;0.57;;;34.60;66.80;;;;;;5013328;28;20140;-72
2022/08/09 13:05:20;;;;;;;1.40;0.75;;;34.90;65.60;;;;;;5019050;28;20104;-72
2022/08/09 13:08:09;;;;;;;1.60;0.60;;;34.70;65.70;;;;;;5012470;28;20053;-72
2022/08/09 13:10:48;;;;;;;1.67;0.60;;;34.70;65.70;;;;;;5013529;28;20045;-72
2022/08/09 13:13:28;;;;;;;1.40;0.60;;;34.60;65.20;;;;;;5036770;28;20148;-73
2022/08/09 13:15:57;;;;;;;1.48;0.60;;;34.80;65.50;;;;;;5038592;28;20084;-72
2022/08/09 13:18:25;;;;;;;1.80;0.63;;;34.90;65.50;;;;;;5031162;28;20040;-72
2022/08/09 13:20:52;;;;;;;1.42;0.70;;;35.00;65.50;;;;;;5033546;28;20099;-73
2022/08/09 13:23:19;;;;;;;2.33;0.77;;;35.00;65.40;;;;;;5033241;28;20060;-72
2022/08/09 13:25:49;;;;;;;3.15;0.70;;;35.20;65.70;;;;;;5051885;28;20057;-72